Time;durP1;ratioP1;P1;durP2;ratioP2;P2;SDS_P1;SDS_P2;PMS_P1;PMS_P2;Temp;Humidity;BMP_temperature;BMP_pressure;BME280_temperature;BME280_humidity;BME280_pressure;Samples;Min_cycle;Max_cycle;Signal;HPM_P1;HPM_P2
2022/09/28 00:01:35;;;;;;;;;;;14.00;64.80;;;;;;5103316;28;19931;-87
2022/09/28 00:04:00;;;;;;;;;;;14.00;64.70;;;;;;5098080;28;19908;-87
2022/09/28 00:06:27;;;;;;;;;;;14.00;64.70;;;;;;5111135;28;20287;-86
2022/09/28 00:08:52;;;;;;;;;;;14.00;64.70;;;;;;5105474;28;19912;-85
2022/09/28 00:11:19;;;;;;;;;;;14.00;64.70;;;;;;5098750;28;20406;-84
2022/09/28 00:13:47;;;;;;;;;;;14.00;64.80;;;;;;5109625;28;19916;-87
2022/09/28 00:16:14;;;;;;;;;;;14.00;64.80;;;;;;5099850;28;19912;-87
2022/09/28 00:18:40;;;;;;;;;;;14.00;64.60;;;;;;5104465;28;19916;-85
2022/09/28 00:21:07;;;;;;;;;;;13.90;64.70;;;;;;5095403;28;19973;-85
2022/09/28 00:23:33;;;;;;;;;;;13.90;64.70;;;;;;5106326;28;19967;-88
2022/09/28 00:26:05;;;;;;;;;;;13.90;64.50;;;;;;5102067;28;20255;-85
2022/09/28 00:28:31;;;;;;;;;;;13.90;64.60;;;;;;5100333;28;19923;-86
2022/09/28 00:30:57;;;;;;;;;;;13.80;64.60;;;;;;5101915;28;20410;-88
2022/09/28 00:33:22;;;;;;;;;;;13.90;64.80;;;;;;5089774;28;19973;-86
2022/09/28 00:35:57;;;;;;;;;;;13.80;64.40;;;;;;5097017;28;19919;-84
2022/09/28 00:38:27;;;;;;;;;;;13.80;64.40;;;;;;5101539;28;19926;-85
2022/09/28 00:40:52;;;;;;;;;;;13.70;64.50;;;;;;5098409;28;20513;-85
2022/09/28 00:43:19;;;;;;;;;;;13.80;64.50;;;;;;5106406;28;20007;-84
2022/09/28 00:45:45;;;;;;;;;;;13.70;64.50;;;;;;5109489;28;20048;-88
2022/09/28 00:48:11;;;;;;;;;;;13.70;64.50;;;;;;5090065;28;19938;-86
2022/09/28 00:50:37;;;;;;;;;;;13.80;64.40;;;;;;5092690;28;19916;-87
2022/09/28 00:53:12;;;;;;;;;;;13.80;64.40;;;;;;5093159;28;19923;-88
2022/09/28 00:55:45;;;;;;;;;;;13.70;64.30;;;;;;5099878;28;20393;-84
2022/09/28 00:58:14;;;;;;;;;;;13.80;64.50;;;;;;5106171;28;20489;-87
2022/09/28 01:00:40;;;;;;;;;;;13.80;64.60;;;;;;5105629;28;19915;-86
2022/09/28 01:03:06;;;;;;;;;;;13.80;64.50;;;;;;5101222;28;19916;-87
2022/09/28 01:05:33;;;;;;;;;;;13.80;64.50;;;;;;5101815;28;20053;-87
2022/09/28 01:08:00;;;;;;;;;;;13.80;64.60;;;;;;5100813;28;19961;-87
2022/09/28 01:10:26;;;;;;;;;;;13.80;64.40;;;;;;5100790;28;19920;-85
2022/09/28 01:12:54;;;;;;;;;;;13.80;64.50;;;;;;5099081;28;19923;-86
2022/09/28 01:15:20;;;;;;;;;;;13.80;64.60;;;;;;5108009;28;20016;-88
2022/09/28 01:17:52;;;;;;;;;;;13.80;64.50;;;;;;5107624;28;20333;-84
2022/09/28 01:20:32;;;;;;;;;;;13.90;64.50;;;;;;5100828;28;19931;-86
2022/09/28 01:23:11;;;;;;;;;;;13.80;64.30;;;;;;5103235;28;19924;-85
2022/09/28 01:25:44;;;;;;;;;;;13.80;64.30;;;;;;5099105;28;19916;-85
2022/09/28 01:28:14;;;;;;;;;;;13.80;64.60;;;;;;5090653;28;19919;-85
2022/09/28 01:30:46;;;;;;;;;;;13.80;64.70;;;;;;5093788;28;19916;-85
2022/09/28 01:33:14;;;;;;;;;;;13.80;64.80;;;;;;5106073;28;20003;-85
2022/09/28 01:35:44;;;;;;;;;;;13.80;64.80;;;;;;5099405;28;20018;-87
2022/09/28 01:38:28;;;;;;;;;;;13.80;64.90;;;;;;5094095;28;20008;-86
2022/09/28 01:40:54;;;;;;;;;;;13.80;65.00;;;;;;5101156;28;20007;-86
2022/09/28 01:43:22;;;;;;;;;;;13.90;64.80;;;;;;5092608;28;19967;-87
2022/09/28 01:45:53;;;;;;;;;;;13.90;64.70;;;;;;5093644;28;19927;-84
2022/09/28 01:48:21;;;;;;;;;;;13.90;64.70;;;;;;5103823;28;19975;-86
2022/09/28 01:50:49;;;;;;;;;;;13.80;64.70;;;;;;5097956;28;19935;-84
2022/09/28 01:53:20;;;;;;;;;;;13.80;64.80;;;;;;5103611;28;20325;-87
2022/09/28 01:55:50;;;;;;;;;;;13.90;64.90;;;;;;5097100;28;20433;-85
2022/09/28 01:58:25;;;;;;;;;;;13.90;65.00;;;;;;5091870;28;20008;-88
2022/09/28 02:00:54;;;;;;;;;;;14.00;65.10;;;;;;5108353;28;20057;-88
2022/09/28 02:03:23;;;;;;;;;;;14.00;64.90;;;;;;5096618;27;20047;-85
2022/09/28 02:05:54;;;;;;;;;;;14.00;64.80;;;;;;5101861;28;19958;-88
2022/09/28 02:08:28;;;;;;;;;;;14.00;64.70;;;;;;5104586;28;19912;-86
2022/09/28 02:11:06;;;;;;;;;;;14.10;64.70;;;;;;5088332;28;20503;-87
2022/09/28 02:13:34;;;;;;;;;;;14.00;64.80;;;;;;5091809;28;19926;-88
2022/09/28 02:16:05;;;;;;;;;;;14.10;64.90;;;;;;5100761;27;19945;-88
2022/09/28 02:18:31;;;;;;;;;;;14.10;64.90;;;;;;5096272;28;20255;-88
2022/09/28 02:21:03;;;;;;;;;;;14.20;64.70;;;;;;5104521;28;19931;-87
2022/09/28 02:23:29;;;;;;;;;;;14.10;64.70;;;;;;5090308;28;20476;-85
2022/09/28 02:26:00;;;;;;;;;;;14.10;64.70;;;;;;5096147;28;20575;-89
2022/09/28 02:28:25;;;;;;;;;;;14.20;64.60;;;;;;5099015;28;19916;-86
2022/09/28 02:30:51;;;;;;;;;;;14.20;64.50;;;;;;5107922;28;19964;-85
2022/09/28 02:33:34;;;;;;;;;;;14.10;64.40;;;;;;5099247;28;19999;-89
2022/09/28 02:36:00;;;;;;;;;;;14.10;64.30;;;;;;5103016;28;19919;-89
2022/09/28 02:38:26;;;;;;;;;;;14.00;64.30;;;;;;5110548;28;19977;-85
2022/09/28 02:41:15;;;;;;;;;;;14.00;64.30;;;;;;5100498;28;19935;-86
2022/09/28 02:43:40;;;;;;;;;;;14.00;64.30;;;;;;5101500;28;20026;-86
2022/09/28 02:46:05;;;;;;;;;;;14.00;64.40;;;;;;5102366;28;20029;-86
2022/09/28 02:48:40;;;;;;;;;;;14.00;64.30;;;;;;5105324;27;20288;-87
2022/09/28 02:51:08;;;;;;;;;;;14.00;64.30;;;;;;5090919;28;19916;-87
2022/09/28 02:53:43;;;;;;;;;;;14.00;64.40;;;;;;5098493;28;19912;-84
2022/09/28 02:56:32;;;;;;;;;;;14.00;64.30;;;;;;5109791;28;19916;-86
2022/09/28 02:59:03;;;;;;;;;;;14.00;64.20;;;;;;5103151;28;19974;-88
2022/09/28 03:01:44;;;;;;;;;;;14.00;64.30;;;;;;5100477;28;20060;-86
2022/09/28 03:04:15;;;;;;;;;;;14.00;64.30;;;;;;5093761;28;19912;-89
2022/09/28 03:06:43;;;;;;;;;;;14.00;64.20;;;;;;5113588;28;19911;-86
2022/09/28 03:09:21;;;;;;;;;;;14.00;64.20;;;;;;5114256;28;19919;-85
2022/09/28 03:11:52;;;;;;;;;;;14.10;64.20;;;;;;5113818;28;19915;-85
2022/09/28 03:14:17;;;;;;;;;;;14.10;64.20;;;;;;5114293;28;19911;-86
2022/09/28 03:16:44;;;;;;;;;;;14.20;64.10;;;;;;5108248;28;20422;-86
2022/09/28 03:19:12;;;;;;;;;;;14.20;64.10;;;;;;5093219;28;19951;-90
2022/09/28 03:21:38;;;;;;;;;;;14.30;64.00;;;;;;5097081;28;19989;-89
2022/09/28 03:24:04;;;;;;;;;;;14.30;64.00;;;;;;5092793;28;19916;-86
2022/09/28 03:26:30;;;;;;;;;;;14.30;63.90;;;;;;5095021;28;19920;-86
2022/09/28 03:28:56;;;;;;;;;;;14.30;63.90;;;;;;5111207;28;20427;-90
2022/09/28 03:31:21;;;;;;;;;;;14.40;63.90;;;;;;5107501;28;19980;-90
2022/09/28 03:33:47;;;;;;;;;;;14.40;63.90;;;;;;5102518;28;19922;-89
2022/09/28 03:36:14;;;;;;;;;;;14.40;64.00;;;;;;5108767;28;19912;-87
2022/09/28 03:38:39;;;;;;;;;;;14.40;63.90;;;;;;5097673;28;19912;-88
2022/09/28 03:41:06;;;;;;;;;;;14.40;64.00;;;;;;5107744;28;19932;-89
2022/09/28 03:43:32;;;;;;;;;;;14.40;63.90;;;;;;5096862;28;19916;-85
2022/09/28 03:45:58;;;;;;;;;;;14.40;63.90;;;;;;5100447;28;19969;-86
2022/09/28 03:48:24;;;;;;;;;;;14.40;63.90;;;;;;5094556;28;19973;-89
2022/09/28 03:50:54;;;;;;;;;;;14.40;63.90;;;;;;5090931;28;19922;-89
2022/09/28 03:53:19;;;;;;;;;;;14.40;64.00;;;;;;5100669;28;19966;-86
2022/09/28 03:55:44;;;;;;;;;;;14.40;63.90;;;;;;5102981;28;20009;-86
2022/09/28 03:58:10;;;;;;;;;;;14.40;64.00;;;;;;5102756;28;20355;-89
2022/09/28 04:00:38;;;;;;;;;;;14.40;64.00;;;;;;5101514;28;20606;-89
2022/09/28 04:03:04;;;;;;;;;;;14.40;63.90;;;;;;5096059;28;19912;-90
2022/09/28 04:05:30;;;;;;;;;;;14.40;63.90;;;;;;5093952;28;19915;-86
2022/09/28 04:07:56;;;;;;;;;;;14.30;64.00;;;;;;5110967;28;19995;-90
2022/09/28 04:10:22;;;;;;;;;;;14.30;64.00;;;;;;5101532;28;19923;-89
2022/09/28 04:12:48;;;;;;;;;;;14.30;64.00;;;;;;5103073;28;19916;-85
2022/09/28 04:15:14;;;;;;;;;;;14.30;64.00;;;;;;5108518;28;19911;-90
2022/09/28 04:17:39;;;;;;;;;;;14.30;64.00;;;;;;5106026;28;19916;-86
2022/09/28 04:20:05;;;;;;;;;;;14.30;64.00;;;;;;5099076;28;19972;-89
2022/09/28 04:22:31;;;;;;;;;;;14.30;64.10;;;;;;5106210;28;19924;-86
2022/09/28 04:24:57;;;;;;;;;;;14.30;64.00;;;;;;5105432;28;20378;-89
2022/09/28 04:30:07;;;;;;;;;;;14.30;64.00;;;;;;5103600;28;19966;-90
2022/09/28 04:32:32;;;;;;;;;;;14.30;64.00;;;;;;5095670;28;19916;-90
2022/09/28 04:34:58;;;;;;;;;;;14.30;64.00;;;;;;5094709;28;19923;-87
2022/09/28 04:37:23;;;;;;;;;;;14.30;63.90;;;;;;5099856;28;20287;-86
2022/09/28 04:39:49;;;;;;;;;;;14.30;63.90;;;;;;5096858;28;19955;-89
2022/09/28 04:42:15;;;;;;;;;;;14.30;63.90;;;;;;5091012;28;19924;-89
2022/09/28 04:44:40;;;;;;;;;;;14.30;63.90;;;;;;5105269;28;19912;-86
2022/09/28 04:47:06;;;;;;;;;;;14.30;63.80;;;;;;5095270;28;20423;-86
2022/09/28 04:49:34;;;;;;;;;;;14.30;63.90;;;;;;5109874;28;19915;-86
2022/09/28 04:51:59;;;;;;;;;;;14.30;63.80;;;;;;5101865;28;20776;-88
2022/09/28 04:54:25;;;;;;;;;;;14.30;63.80;;;;;;5091728;28;19912;-88
2022/09/28 04:56:51;;;;;;;;;;;14.30;63.80;;;;;;5095209;28;19916;-85
2022/09/28 04:59:17;;;;;;;;;;;14.30;63.80;;;;;;5090424;28;19927;-86
2022/09/28 05:01:42;;;;;;;;;;;14.30;63.80;;;;;;5105147;28;20208;-86
2022/09/28 05:04:08;;;;;;;;;;;14.30;63.70;;;;;;5097956;28;19962;-89
2022/09/28 05:06:33;;;;;;;;;;;14.30;63.70;;;;;;5110747;27;19995;-87
2022/09/28 05:08:59;;;;;;;;;;;14.30;63.80;;;;;;5120035;27;19919;-87
2022/09/28 05:11:24;;;;;;;;;;;14.30;63.80;;;;;;5112549;28;19916;-88
2022/09/28 05:13:50;;;;;;;;;;;14.20;63.70;;;;;;5117388;28;19919;-90
2022/09/28 05:16:15;;;;;;;;;;;14.20;63.70;;;;;;5130772;27;19912;-89
2022/09/28 05:18:41;;;;;;;;;;;14.20;63.70;;;;;;5132473;27;20435;-87
2022/09/28 05:21:13;;;;;;;;;;;14.20;63.70;;;;;;5132148;27;19927;-86
2022/09/28 05:23:40;;;;;;;;;;;14.30;63.70;;;;;;5132688;28;19912;-89
2022/09/28 05:26:05;;;;;;;;;;;14.20;63.60;;;;;;5123667;27;20380;-88
2022/09/28 05:28:32;;;;;;;;;;;14.20;63.60;;;;;;5103754;28;20026;-85
2022/09/28 05:30:58;;;;;;;;;;;14.20;63.70;;;;;;5089572;28;20260;-88
2022/09/28 05:33:24;;;;;;;;;;;14.20;63.60;;;;;;5104172;28;19965;-85
2022/09/28 05:35:50;;;;;;;;;;;14.20;63.60;;;;;;5114442;28;19916;-89
2022/09/28 05:38:15;;;;;;;;;;;14.10;63.60;;;;;;5109627;28;20368;-89
2022/09/28 05:40:41;;;;;;;;;;;14.10;63.60;;;;;;5110150;28;20267;-86
2022/09/28 05:43:06;;;;;;;;;;;14.10;63.60;;;;;;5111476;28;19915;-86
2022/09/28 05:45:32;;;;;;;;;;;14.20;63.60;;;;;;5106839;28;19920;-90
2022/09/28 05:47:57;;;;;;;;;;;14.10;63.60;;;;;;5102337;28;19919;-89
2022/09/28 05:50:23;;;;;;;;;;;14.10;63.60;;;;;;5098490;28;20297;-90
2022/09/28 05:52:59;;;;;;;;;;;14.20;63.70;;;;;;5105682;28;19915;-86
2022/09/28 05:55:24;;;;;;;;;;;14.20;63.70;;;;;;5106532;28;19916;-85
2022/09/28 05:57:50;;;;;;;;;;;14.20;63.80;;;;;;5108707;28;19922;-90
2022/09/28 06:00:15;;;;;;;;;;;14.30;63.70;;;;;;5107648;28;20437;-84
2022/09/28 06:02:40;;;;;;;;;;;14.30;63.80;;;;;;5108169;28;19923;-88
2022/09/28 06:05:06;;;;;;;;;;;14.30;63.90;;;;;;5111235;28;19915;-89
2022/09/28 06:07:32;;;;;;;;;;;14.40;63.90;;;;;;5096311;28;20363;-84
2022/09/28 06:09:58;;;;;;;;;;;14.40;63.90;;;;;;5091331;28;19992;-88
2022/09/28 06:12:24;;;;;;;;;;;14.50;63.90;;;;;;5091435;28;19912;-86
2022/09/28 06:14:49;;;;;;;;;;;14.60;63.90;;;;;;5089772;28;19989;-85
2022/09/28 06:17:15;;;;;;;;;;;14.60;63.90;;;;;;5089975;28;20050;-89
2022/09/28 06:19:41;;;;;;;;;;;14.70;63.90;;;;;;5093331;28;19922;-86
2022/09/28 06:22:06;;;;;;;;;;;14.70;63.90;;;;;;5091154;28;19924;-85
2022/09/28 06:24:31;;;;;;;;;;;14.70;63.80;;;;;;5091196;28;19916;-85
2022/09/28 06:26:57;;;;;;;;;;;14.80;63.90;;;;;;5091940;28;19947;-89
2022/09/28 06:29:22;;;;;;;;;;;14.80;63.90;;;;;;5091788;28;19927;-86
2022/09/28 06:31:48;;;;;;;;;;;14.80;63.80;;;;;;5091386;28;19912;-85
2022/09/28 06:34:13;;;;;;;;;;;14.90;63.80;;;;;;5091224;28;19916;-85
2022/09/28 06:36:39;;;;;;;;;;;14.90;63.80;;;;;;5091187;28;20341;-89
2022/09/28 06:39:05;;;;;;;;;;;14.90;63.90;;;;;;5093268;28;19920;-85
2022/09/28 06:41:30;;;;;;;;;;;15.00;63.90;;;;;;5110737;28;19938;-85
2022/09/28 06:43:56;;;;;;;;;;;15.00;63.90;;;;;;5096166;28;19973;-89
2022/09/28 06:46:21;;;;;;;;;;;15.00;63.80;;;;;;5090870;28;20302;-88
2022/09/28 06:48:47;;;;;;;;;;;15.00;63.90;;;;;;5090001;28;20026;-86
2022/09/28 06:51:12;;;;;;;;;;;15.00;63.90;;;;;;5089953;28;20011;-85
2022/09/28 06:53:37;;;;;;;;;;;15.10;64.00;;;;;;5089609;28;19916;-87
2022/09/28 06:56:03;;;;;;;;;;;15.10;64.10;;;;;;5091140;28;19916;-84
2022/09/28 06:58:30;;;;;;;;;;;15.20;64.00;;;;;;5088934;28;19935;-85
2022/09/28 07:00:59;;;;;;;;;;;15.20;64.00;;;;;;5090572;28;20417;-88
2022/09/28 07:03:24;;;;;;;;;;;15.30;64.00;;;;;;5089427;28;20377;-85
2022/09/28 07:05:52;;;;;;;;;;;15.30;64.00;;;;;;5090698;28;20378;-85
2022/09/28 07:08:19;;;;;;;;;;;15.40;64.10;;;;;;5090444;28;19933;-88
2022/09/28 07:10:46;;;;;;;;;;;15.40;64.20;;;;;;5090379;28;20022;-89
2022/09/28 07:13:12;;;;;;;;;;;15.40;64.20;;;;;;5091832;28;19924;-86
2022/09/28 07:15:38;;;;;;;;;;;15.50;64.20;;;;;;5088714;28;19916;-88
2022/09/28 07:18:05;;;;;;;;;;;15.50;64.10;;;;;;5089466;28;20375;-85
2022/09/28 07:20:34;;;;;;;;;;;15.60;64.20;;;;;;5090613;28;19931;-85
2022/09/28 07:23:01;;;;;;;;;;;15.70;64.20;;;;;;5091268;28;20629;-89
2022/09/28 07:25:28;;;;;;;;;;;15.70;64.30;;;;;;5088627;28;19916;-88
2022/09/28 07:27:56;;;;;;;;;;;15.80;64.30;;;;;;5088571;28;20109;-87
2022/09/28 07:30:24;;;;;;;;;;;15.90;64.40;;;;;;5088836;28;19923;-90
2022/09/28 07:32:50;;;;;;;;;;;16.00;64.50;;;;;;5088919;28;19923;-84
2022/09/28 07:35:16;;;;;;;;;;;16.20;64.60;;;;;;5089934;28;19924;-86
2022/09/28 07:37:41;;;;;;;;;;;16.30;64.60;;;;;;5090885;28;20398;-86
2022/09/28 07:42:51;;;;;;;;;;;16.50;64.40;;;;;;5102490;28;20009;-88
2022/09/28 07:45:19;;;;;;;;;;;16.60;64.60;;;;;;5090046;28;19920;-88
2022/09/28 07:47:45;;;;;;;;;;;16.70;64.60;;;;;;5089560;28;20967;-88
2022/09/28 07:50:10;;;;;;;;;;;16.80;64.70;;;;;;5088065;28;19962;-88
2022/09/28 07:52:36;;;;;;;;;;;17.00;64.80;;;;;;5089917;28;19916;-89
2022/09/28 07:55:03;;;;;;;;;;;17.20;64.80;;;;;;5090352;28;19965;-87
2022/09/28 07:57:32;;;;;;;;;;;17.30;64.80;;;;;;5089417;28;19923;-86
2022/09/28 07:59:57;;;;;;;;;;;17.40;64.70;;;;;;5089002;28;19923;-90
2022/09/28 08:02:23;;;;;;;;;;;17.50;64.60;;;;;;5087656;28;19924;-86
2022/09/28 08:04:48;;;;;;;;;;;17.50;64.40;;;;;;5089426;28;20286;-89
2022/09/28 08:07:15;;;;;;;;;;;17.50;64.20;;;;;;5087864;28;20347;-93
2022/09/28 08:09:41;;;;;;;;;;;17.60;64.10;;;;;;5087622;28;20329;-88
2022/09/28 08:12:07;;;;;;;;;;;17.60;64.00;;;;;;5088086;28;19916;-89
2022/09/28 08:14:33;;;;;;;;;;;17.70;64.00;;;;;;5089357;28;19916;-88
2022/09/28 08:16:59;;;;;;;;;;;17.70;64.00;;;;;;5087910;28;20160;-89
2022/09/28 08:19:25;;;;;;;;;;;17.70;63.90;;;;;;5088876;28;20015;-85
2022/09/28 08:21:50;;;;;;;;;;;17.70;63.90;;;;;;5087456;28;20380;-86
2022/09/28 08:24:16;;;;;;;;;;;17.60;63.90;;;;;;5087177;28;19919;-87
2022/09/28 08:26:42;;;;;;;;;;;17.50;63.50;;;;;;5088651;28;19927;-86
2022/09/28 08:29:08;;;;;;;;;;;17.50;63.60;;;;;;5087186;28;19919;-90
2022/09/28 08:31:34;;;;;;;;;;;17.50;63.50;;;;;;5087063;28;20373;-86
2022/09/28 08:33:59;;;;;;;;;;;17.50;63.70;;;;;;5088589;28;19912;-87
2022/09/28 08:36:25;;;;;;;;;;;17.60;63.90;;;;;;5087476;28;19916;-90
2022/09/28 08:38:50;;;;;;;;;;;17.60;63.90;;;;;;5090780;28;19919;-87
2022/09/28 08:41:35;;;;;;;;;;;17.60;63.90;;;;;;5109371;28;20108;-88
2022/09/28 08:44:03;;;;;;;;;;;17.60;63.90;;;;;;5091316;28;19995;-86
2022/09/28 08:46:32;;;;;;;;;;;17.60;64.00;;;;;;5088544;28;20054;-86
2022/09/28 08:49:06;;;;;;;;;;;17.60;64.00;;;;;;5087704;28;19918;-89
2022/09/28 08:51:38;;;;;;;;;;;17.70;63.90;;;;;;5087346;28;19927;-86
2022/09/28 08:54:07;;;;;;;;;;;17.60;63.80;;;;;;5088348;28;19912;-88
2022/09/28 08:57:02;;;;;;;;;;;17.60;63.70;;;;;;5086638;28;20352;-87
2022/09/28 08:59:35;;;;;;;;;;;17.50;63.60;;;;;;5067837;28;19920;-87
2022/09/28 09:02:03;;;;;;;;;;;17.50;63.70;;;;;;5086936;28;20308;-87
2022/09/28 09:04:29;;;;;;;;;;;17.50;63.70;;;;;;5086819;28;19916;-89
2022/09/28 09:07:09;;;;;;;;;;;17.50;63.80;;;;;;5089534;28;19927;-86
2022/09/28 09:09:35;;;;;;;;;;;17.50;63.70;;;;;;5089069;28;19923;-86
2022/09/28 09:12:12;;;;;;;;;;;17.50;63.80;;;;;;5087186;28;19927;-90
2022/09/28 09:15:10;;;;;;;;;;;17.60;63.90;;;;;;5089377;28;20005;-88
2022/09/28 09:17:35;;;;;;;;;;;17.70;64.00;;;;;;5075765;28;19912;-89
2022/09/28 09:20:10;;;;;;;;;;;17.80;64.30;;;;;;5088126;28;19927;-85
2022/09/28 09:22:39;;;;;;;;;;;17.90;64.10;;;;;;5087913;28;20353;-87
2022/09/28 09:25:04;;;;;;;;;;;18.00;64.30;;;;;;5088429;28;19912;-90
2022/09/28 09:27:42;;;;;;;;;;;18.10;64.30;;;;;;5086890;28;19927;-90
2022/09/28 09:30:13;;;;;;;;;;;18.30;64.50;;;;;;5086751;28;19916;-86
2022/09/28 09:32:52;;;;;;;;;;;18.50;64.90;;;;;;5095031;28;19925;-90
2022/09/28 09:35:29;;;;;;;;;;;18.70;64.60;;;;;;5112241;28;19919;-86
2022/09/28 09:38:15;;;;;;;;;;;18.90;64.70;;;;;;5117238;27;19980;-88
2022/09/28 09:40:50;;;;;;;;;;;19.20;65.00;;;;;;5115029;27;20002;-87
2022/09/28 09:43:24;;;;;;;;;;;19.60;65.90;;;;;;5102267;28;19932;-87
2022/09/28 09:45:52;;;;;;;;;;;20.10;66.10;;;;;;5091720;28;19936;-88
2022/09/28 09:48:28;;;;;;;;;;;20.40;65.50;;;;;;5090811;28;19964;-89
2022/09/28 09:50:59;;;;;;;;;;;20.80;65.40;;;;;;5091186;28;19912;-90
2022/09/28 09:53:42;;;;;;;;;;;21.30;66.00;;;;;;5091231;28;20426;-88
2022/09/28 09:56:13;;;;;;;;;;;21.80;66.40;;;;;;5091562;28;19919;-87
2022/09/28 09:58:46;;;;;;;;;;;22.30;65.20;;;;;;5093050;28;19928;-86
2022/09/28 10:01:13;;;;;;;;;;;22.50;63.20;;;;;;5090714;28;19924;-89
2022/09/28 10:03:40;;;;;;;;;;;22.60;61.80;;;;;;5091972;28;20024;-87
2022/09/28 10:06:07;;;;;;;;;;;22.50;61.80;;;;;;5091826;28;20015;-89
2022/09/28 10:08:33;;;;;;;;;;;22.40;61.70;;;;;;5090123;28;20398;-86
2022/09/28 10:11:11;;;;;;;;;;;22.30;60.80;;;;;;5092010;28;20352;-90
2022/09/28 10:13:38;;;;;;;;;;;22.20;61.60;;;;;;5091214;28;19965;-90
2022/09/28 10:16:05;;;;;;;;;;;22.00;61.00;;;;;;5090243;28;19912;-86
2022/09/28 10:18:31;;;;;;;;;;;21.80;60.80;;;;;;5090205;28;19920;-90
2022/09/28 10:20:56;;;;;;;;;;;21.70;61.40;;;;;;5091377;28;19927;-90
2022/09/28 10:23:30;;;;;;;;;;;21.60;62.00;;;;;;5089868;28;19916;-88
2022/09/28 10:25:58;;;;;;;;;;;21.50;61.30;;;;;;5091538;28;20425;-91
2022/09/28 10:28:46;;;;;;;;;;;21.20;59.30;;;;;;5091565;28;19916;-91
2022/09/28 10:31:35;;;;;;;;;;;20.80;60.10;;;;;;5089341;28;20442;-86
2022/09/28 10:34:00;;;;;;;;;;;20.60;60.60;;;;;;5083126;28;19918;-90
2022/09/28 10:36:26;;;;;;;;;;;20.30;60.30;;;;;;5089766;28;19927;-88
2022/09/28 10:38:53;;;;;;;;;;;20.10;60.30;;;;;;5091188;28;19916;-91
2022/09/28 10:41:19;;;;;;;;;;;19.90;60.20;;;;;;5110996;28;19959;-88
2022/09/28 10:44:28;;;;;;;;;;;19.60;60.50;;;;;;5098233;28;19916;-90
2022/09/28 10:46:54;;;;;;;;;;;19.50;61.10;;;;;;5091255;28;20539;-87
2022/09/28 10:49:20;;;;;;;;;;;19.20;60.80;;;;;;5091566;28;19999;-89
2022/09/28 10:51:48;;;;;;;;;;;19.10;61.10;;;;;;5089671;28;20304;-89
2022/09/28 10:54:18;;;;;;;;;;;19.00;61.10;;;;;;5090402;28;19965;-90
2022/09/28 10:56:44;;;;;;;;;;;18.90;61.20;;;;;;5090164;28;19916;-87
2022/09/28 10:59:42;;;;;;;;;;;18.80;60.60;;;;;;5090779;28;19916;-91
2022/09/28 11:02:26;;;;;;;;;;;18.60;60.50;;;;;;5078314;28;20196;-85
2022/09/28 11:04:56;;;;;;;;;;;18.40;60.80;;;;;;5100013;28;19955;-90
2022/09/28 11:07:24;;;;;;;;;;;18.30;61.20;;;;;;5112404;28;20378;-90
2022/09/28 11:09:50;;;;;;;;;;;18.20;60.80;;;;;;5109523;28;19922;-90
2022/09/28 11:12:20;;;;;;;;;;;18.20;61.10;;;;;;5112207;28;19919;-91
2022/09/28 11:14:51;;;;;;;;;;;18.00;61.30;;;;;;5109416;28;20061;-87
2022/09/28 11:17:23;;;;;;;;;;;17.90;61.20;;;;;;5108473;28;19922;-85
2022/09/28 11:19:48;;;;;;;;;;;17.90;62.00;;;;;;5108506;28;19923;-88
2022/09/28 11:22:21;;;;;;;;;;;17.90;62.10;;;;;;5111078;28;20024;-86
2022/09/28 11:24:47;;;;;;;;;;;18.00;62.40;;;;;;5109083;28;19916;-91
2022/09/28 11:27:20;;;;;;;;;;;18.00;62.80;;;;;;5108768;28;19920;-92
2022/09/28 11:29:57;;;;;;;;;;;18.00;62.30;;;;;;5108604;28;20437;-86
2022/09/28 11:32:24;;;;;;;;;;;18.10;62.80;;;;;;5110019;28;19916;-84
2022/09/28 11:34:51;;;;;;;;;;;17.90;62.20;;;;;;5110268;28;19923;-88
2022/09/28 11:37:35;;;;;;;;;;;17.70;61.90;;;;;;5110468;28;20021;-87
2022/09/28 11:40:10;;;;;;;;;;;17.40;61.90;;;;;;5108112;28;19912;-87
2022/09/28 11:42:36;;;;;;;;;;;17.20;62.10;;;;;;5105413;28;20018;-84
2022/09/28 11:45:23;;;;;;;;;;;17.00;62.30;;;;;;5089218;28;19999;-87
2022/09/28 11:47:56;;;;;;;;;;;17.00;62.90;;;;;;5087827;28;19919;-87
2022/09/28 11:50:32;;;;;;;;;;;16.80;63.20;;;;;;5089314;28;19912;-87
2022/09/28 11:53:02;;;;;;;;;;;16.80;63.60;;;;;;5089994;28;19924;-87
2022/09/28 11:55:35;;;;;;;;;;;16.70;63.30;;;;;;5087885;28;19912;-85
2022/09/28 11:58:19;;;;;;;;;;;16.70;63.90;;;;;;5089627;28;20526;-85
2022/09/28 12:00:48;;;;;;;;;;;16.90;64.60;;;;;;5087131;28;20310;-89
2022/09/28 12:03:33;;;;;;;;;;;17.20;65.30;;;;;;5089325;28;19997;-91
2022/09/28 12:05:59;;;;;;;;;;;17.40;65.50;;;;;;5097994;28;19916;-88
2022/09/28 12:08:27;;;;;;;;;;;17.70;65.80;;;;;;5107756;28;19962;-88
2022/09/28 12:11:14;;;;;;;;;;;17.80;66.10;;;;;;5109363;28;19992;-86
2022/09/28 12:13:46;;;;;;;;;;;18.00;66.20;;;;;;5107708;28;20385;-86
2022/09/28 12:16:14;;;;;;;;;;;18.30;65.80;;;;;;5109249;28;19927;-86
2022/09/28 12:18:49;;;;;;;;;;;18.40;65.30;;;;;;5109366;28;19987;-89
2022/09/28 12:21:34;;;;;;;;;;;18.50;64.70;;;;;;5105376;28;20363;-87
2022/09/28 12:24:02;;;;;;;;;;;18.50;64.80;;;;;;5087673;28;20030;-86
2022/09/28 12:26:47;;;;;;;;;;;18.40;64.80;;;;;;5089396;28;20482;-85
2022/09/28 12:29:14;;;;;;;;;;;18.40;64.70;;;;;;5087140;28;19948;-85
2022/09/28 12:31:50;;;;;;;;;;;18.30;64.20;;;;;;5092316;27;19915;-88
2022/09/28 12:34:16;;;;;;;;;;;18.30;63.90;;;;;;5107163;28;20263;-84
2022/09/28 12:37:06;;;;;;;;;;;18.20;64.10;;;;;;5107229;28;19927;-87
2022/09/28 12:39:50;;;;;;;;;;;18.20;64.20;;;;;;5107283;28;19916;-88
2022/09/28 12:42:21;;;;;;;;;;;18.20;64.60;;;;;;5107416;28;19923;-89
2022/09/28 12:45:03;;;;;;;;;;;18.30;64.70;;;;;;5088321;28;19916;-85
2022/09/28 12:47:37;;;;;;;;;;;18.30;64.60;;;;;;5088666;28;19916;-89
2022/09/28 12:50:12;;;;;;;;;;;18.40;64.90;;;;;;5088699;28;19916;-87
2022/09/28 12:52:46;;;;;;;;;;;18.40;64.80;;;;;;5087078;28;20012;-86
2022/09/28 12:55:16;;;;;;;;;;;18.40;64.60;;;;;;5086624;28;19916;-89
2022/09/28 12:57:57;;;;;;;;;;;18.40;64.60;;;;;;5087946;28;19916;-89
2022/09/28 13:00:24;;;;;;;;;;;18.40;64.50;;;;;;5086732;28;19920;-86
2022/09/28 13:02:52;;;;;;;;;;;18.40;64.20;;;;;;5088169;28;19977;-85
2022/09/28 13:05:33;;;;;;;;;;;18.40;64.10;;;;;;5088150;28;19964;-86
2022/09/28 13:08:05;;;;;;;;;;;18.40;63.80;;;;;;5089230;28;19920;-86
2022/09/28 13:10:44;;;;;;;;;;;18.30;63.70;;;;;;5086751;28;19916;-89
2022/09/28 13:13:19;;;;;;;;;;;18.30;63.40;;;;;;5101657;28;19916;-88
2022/09/28 13:15:55;;;;;;;;;;;18.20;63.30;;;;;;5106776;28;19961;-85
2022/09/28 13:18:26;;;;;;;;;;;18.00;63.30;;;;;;5107888;28;19916;-85
2022/09/28 13:20:57;;;;;;;;;;;17.90;63.10;;;;;;5106721;28;19931;-85
2022/09/28 13:23:36;;;;;;;;;;;17.80;63.50;;;;;;5109062;28;20736;-85
2022/09/28 13:26:08;;;;;;;;;;;17.80;63.70;;;;;;5108302;28;20576;-86
2022/09/28 13:28:36;;;;;;;;;;;17.80;63.90;;;;;;5108745;28;19919;-85
2022/09/28 13:31:02;;;;;;;;;;;17.70;63.90;;;;;;5107374;28;20521;-86
2022/09/28 13:33:32;;;;;;;;;;;17.70;63.70;;;;;;5107151;28;19920;-85
2022/09/28 13:35:58;;;;;;;;;;;17.70;64.10;;;;;;5108781;28;19912;-89
2022/09/28 13:38:24;;;;;;;;;;;17.80;64.30;;;;;;5108204;28;19920;-89
2022/09/28 13:41:05;;;;;;;;;;;17.80;64.40;;;;;;5088131;28;20318;-89
2022/09/28 13:43:33;;;;;;;;;;;18.00;64.30;;;;;;5097746;28;19928;-86
2022/09/28 13:46:02;;;;;;;;;;;18.20;64.10;;;;;;5106461;28;20006;-86
2022/09/28 13:48:54;;;;;;;;;;;18.30;64.20;;;;;;5110650;28;19924;-88
2022/09/28 13:51:38;;;;;;;;;;;18.50;64.30;;;;;;5105705;28;19962;-90
2022/09/28 13:54:10;;;;;;;;;;;18.70;64.20;;;;;;5106967;28;19923;-86
2022/09/28 13:56:41;;;;;;;;;;;18.70;63.90;;;;;;5109043;28;19911;-85
2022/09/28 13:59:13;;;;;;;;;;;18.70;63.80;;;;;;5108146;28;19920;-88
2022/09/28 14:01:49;;;;;;;;;;;18.60;64.00;;;;;;5106514;28;20404;-89
2022/09/28 14:04:17;;;;;;;;;;;18.60;63.90;;;;;;5108186;28;19946;-89
2022/09/28 14:06:48;;;;;;;;;;;18.50;63.70;;;;;;5108171;28;19918;-88
2022/09/28 14:09:14;;;;;;;;;;;18.60;63.80;;;;;;5106166;28;19927;-89
2022/09/28 14:11:52;;;;;;;;;;;18.60;63.80;;;;;;5108024;28;19919;-88
2022/09/28 14:14:17;;;;;;;;;;;18.60;63.50;;;;;;5107943;28;19955;-89
2022/09/28 14:16:43;;;;;;;;;;;18.70;63.80;;;;;;5107816;28;19946;-89
2022/09/28 14:19:17;;;;;;;;;;;18.80;64.00;;;;;;5106300;28;19966;-89
2022/09/28 14:21:42;;;;;;;;;;;18.90;64.20;;;;;;5108782;28;19970;-89
2022/09/28 14:24:08;;;;;;;;;;;19.00;64.20;;;;;;5108108;28;19959;-90
2022/09/28 14:26:45;;;;;;;;;;;19.00;64.00;;;;;;5109873;28;19915;-89
2022/09/28 14:29:19;;;;;;;;;;;19.00;64.00;;;;;;5110142;28;20390;-86
2022/09/28 14:31:44;;;;;;;;;;;19.10;64.10;;;;;;5109909;28;20408;-88
2022/09/28 14:34:28;;;;;;;;;;;19.10;64.20;;;;;;5111274;28;19919;-89
2022/09/28 14:42:26;;;;;;;;;;;19.00;64.10;;;;;;5093152;28;19935;-89